createdAt,value
2022-11-11T00:01:08.733Z,15.00
2022-11-11T00:03:35.458Z,15.10
2022-11-11T00:06:03.516Z,15.00
2022-11-11T00:08:30.494Z,15.00
2022-11-11T00:11:07.365Z,15.00
2022-11-11T00:13:34.592Z,15.00
2022-11-11T00:16:09.458Z,15.00
2022-11-11T00:18:54.995Z,15.10
2022-11-11T00:21:37.287Z,15.10
2022-11-11T00:24:42.201Z,15.10
2022-11-11T00:27:09.750Z,15.20
2022-11-11T00:29:38.030Z,15.20
2022-11-11T00:32:24.293Z,15.20
2022-11-11T00:35:10.175Z,15.20
2022-11-11T00:37:37.082Z,15.10
2022-11-11T00:40:04.096Z,15.20
2022-11-11T00:42:30.833Z,15.20
2022-11-11T00:44:57.975Z,15.20
2022-11-11T00:47:43.064Z,15.20
2022-11-11T00:50:48.974Z,15.20
2022-11-11T00:53:21.575Z,15.20
2022-11-11T00:55:52.566Z,15.20
2022-11-11T00:58:19.306Z,15.20
2022-11-11T01:00:46.154Z,15.20
2022-11-11T01:03:12.905Z,15.20
2022-11-11T01:05:39.688Z,15.20
2022-11-11T01:08:06.417Z,15.20
2022-11-11T01:10:39.128Z,15.20
2022-11-11T01:13:13.213Z,15.20
2022-11-11T01:15:46.263Z,15.20
2022-11-11T01:18:14.565Z,15.20
2022-11-11T01:20:41.830Z,15.20
2022-11-11T01:23:09.550Z,15.20
2022-11-11T01:25:37.066Z,15.20
2022-11-11T01:28:04.641Z,15.20
2022-11-11T01:30:32.073Z,15.20
2022-11-11T01:32:59.093Z,15.20
2022-11-11T01:35:26.116Z,15.20
2022-11-11T01:37:53.203Z,15.20
2022-11-11T01:40:20.212Z,15.30
2022-11-11T01:42:48.315Z,15.30
2022-11-11T01:45:54.755Z,15.30
2022-11-11T01:49:02.338Z,15.20
2022-11-11T01:51:36.881Z,15.20
2022-11-11T01:54:06.318Z,15.20
2022-11-11T01:56:33.312Z,15.20
2022-11-11T01:59:02.584Z,15.20
2022-11-11T02:01:29.655Z,15.20
2022-11-11T02:04:14.892Z,15.20
2022-11-11T02:06:41.913Z,15.20
2022-11-11T02:09:09.827Z,15.20
2022-11-11T02:11:55.436Z,15.20
2022-11-11T02:14:37.208Z,15.20
2022-11-11T02:17:05.649Z,15.10
2022-11-11T02:20:02.573Z,15.10
2022-11-11T02:22:35.234Z,15.10
2022-11-11T02:25:02.629Z,15.10
2022-11-11T02:27:30.127Z,15.10
2022-11-11T02:30:00.376Z,15.10
2022-11-11T02:32:27.176Z,15.10
2022-11-11T02:34:53.977Z,15.10
2022-11-11T02:37:25.481Z,15.10
2022-11-11T02:40:03.615Z,15.10
2022-11-11T02:42:31.707Z,15.00
2022-11-11T02:44:59.453Z,15.10
2022-11-11T02:47:27.388Z,15.00
2022-11-11T02:49:54.214Z,15.00
2022-11-11T02:52:21.352Z,15.10
2022-11-11T02:54:49.422Z,15.00
2022-11-11T02:57:16.768Z,15.10
2022-11-11T02:59:43.684Z,15.10
2022-11-11T03:02:10.639Z,15.10
2022-11-11T03:04:38.405Z,15.10
2022-11-11T03:07:05.671Z,15.10
2022-11-11T03:09:32.655Z,15.10
2022-11-11T03:12:00.016Z,15.10
2022-11-11T03:14:26.936Z,15.10
2022-11-11T03:17:12.277Z,15.10
2022-11-11T03:19:39.305Z,15.20
2022-11-11T03:25:11.138Z,15.10
2022-11-11T03:27:37.979Z,15.10
2022-11-11T03:30:05.074Z,15.10
2022-11-11T03:32:32.405Z,15.10
2022-11-11T03:34:59.122Z,15.10
2022-11-11T03:37:44.483Z,15.10
2022-11-11T03:40:11.545Z,15.00
2022-11-11T03:42:38.288Z,15.10
2022-11-11T03:45:05.254Z,15.00
2022-11-11T03:47:31.912Z,15.00
2022-11-11T03:49:58.733Z,15.00
2022-11-11T03:52:25.410Z,14.90
2022-11-11T03:54:52.088Z,14.90
2022-11-11T03:57:31.918Z,14.90
2022-11-11T03:59:58.993Z,14.90
2022-11-11T04:02:44.262Z,14.80
2022-11-11T04:05:29.418Z,14.90
2022-11-11T04:08:14.609Z,14.80
2022-11-11T04:10:41.294Z,14.80
2022-11-11T04:13:26.654Z,14.80
2022-11-11T04:16:08.659Z,14.80
2022-11-11T04:18:54.447Z,14.70
2022-11-11T04:21:40.541Z,14.70
2022-11-11T04:24:26.105Z,14.70
2022-11-11T04:26:54.827Z,14.70
2022-11-11T04:29:31.431Z,14.60
2022-11-11T04:32:27.283Z,14.60
2022-11-11T04:34:58.451Z,14.50
2022-11-11T04:37:25.972Z,14.50
2022-11-11T04:40:11.736Z,14.40
2022-11-11T04:42:39.440Z,14.50
2022-11-11T04:45:25.848Z,14.40
2022-11-11T04:48:13.299Z,14.40
2022-11-11T04:50:41.340Z,14.40
2022-11-11T04:53:10.868Z,14.40
2022-11-11T04:55:56.451Z,14.40
2022-11-11T04:58:25.545Z,14.30
2022-11-11T05:00:52.356Z,14.40
2022-11-11T05:03:21.743Z,14.30
2022-11-11T05:06:07.186Z,14.30
2022-11-11T05:08:53.800Z,14.20
2022-11-11T05:11:21.139Z,14.20
2022-11-11T05:14:06.812Z,14.20
2022-11-11T05:16:53.312Z,14.20
2022-11-11T05:19:38.636Z,14.20
2022-11-11T05:22:37.661Z,14.20
2022-11-11T05:25:30.199Z,14.20
2022-11-11T05:27:57.423Z,14.20
2022-11-11T05:30:24.466Z,14.20
2022-11-11T05:32:51.616Z,14.20
2022-11-11T05:35:18.589Z,14.20
2022-11-11T05:38:05.313Z,14.20
2022-11-11T05:40:32.150Z,14.20
2022-11-11T05:42:58.954Z,14.30
2022-11-11T05:45:25.797Z,14.30
2022-11-11T05:47:52.565Z,14.30
2022-11-11T05:50:19.461Z,14.20
2022-11-11T05:52:50.267Z,14.20
2022-11-11T05:55:17.206Z,14.20
2022-11-11T05:57:44.078Z,14.20
2022-11-11T06:00:11.353Z,14.20
2022-11-11T06:02:38.827Z,14.20
2022-11-11T06:05:05.675Z,14.20
2022-11-11T06:07:32.520Z,14.20
2022-11-11T06:10:19.230Z,14.20
2022-11-11T06:13:04.521Z,14.20
2022-11-11T06:15:33.085Z,14.20
2022-11-11T06:18:00.198Z,14.20
2022-11-11T06:20:27.160Z,14.20
2022-11-11T06:22:56.585Z,14.20
2022-11-11T06:25:46.223Z,14.20
2022-11-11T06:28:13.092Z,14.20
2022-11-11T06:30:50.128Z,14.20
2022-11-11T06:33:17.695Z,14.20
2022-11-11T06:35:45.468Z,14.20
2022-11-11T06:38:12.340Z,14.30
2022-11-11T06:40:39.352Z,14.30
2022-11-11T06:43:06.073Z,14.30
2022-11-11T06:45:33.622Z,14.40
2022-11-11T06:48:00.518Z,14.40
2022-11-11T06:50:29.011Z,14.40
2022-11-11T06:52:56.223Z,14.50
2022-11-11T06:55:22.945Z,14.50
2022-11-11T06:57:49.680Z,14.60
2022-11-11T07:00:18.874Z,14.60
2022-11-11T07:02:48.871Z,14.70
2022-11-11T07:05:15.735Z,14.70
2022-11-11T07:07:42.732Z,14.70
2022-11-11T07:10:10.868Z,14.70
2022-11-11T07:12:40.282Z,14.80
2022-11-11T07:15:07.429Z,14.70
2022-11-11T07:17:34.132Z,14.80
2022-11-11T07:20:01.316Z,14.80
2022-11-11T07:22:28.182Z,14.80
2022-11-11T07:24:54.860Z,14.80
2022-11-11T07:27:21.692Z,14.80
2022-11-11T07:29:48.683Z,14.80
2022-11-11T07:32:17.440Z,14.80
2022-11-11T07:34:46.777Z,14.80
2022-11-11T07:37:13.461Z,14.80
2022-11-11T07:39:40.125Z,14.80
2022-11-11T07:42:06.908Z,14.90
2022-11-11T07:44:33.741Z,14.90
2022-11-11T07:47:00.568Z,14.90
2022-11-11T07:49:27.431Z,14.90
2022-11-11T07:51:54.099Z,14.90
2022-11-11T07:54:20.923Z,14.90
2022-11-11T07:56:47.718Z,14.90
2022-11-11T07:59:14.406Z,15.00
2022-11-11T08:01:41.151Z,15.00
2022-11-11T08:04:08.044Z,15.00
2022-11-11T08:06:34.851Z,15.00
2022-11-11T08:09:02.671Z,15.00
2022-11-11T08:11:48.017Z,15.10
2022-11-11T08:14:15.331Z,15.10
2022-11-11T08:16:42.578Z,15.10
2022-11-11T08:19:09.433Z,15.20
2022-11-11T08:21:36.154Z,15.20
2022-11-11T08:24:56.594Z,15.20
2022-11-11T08:26:50.718Z,15.20
2022-11-11T08:29:17.849Z,15.30
2022-11-11T08:31:44.495Z,15.30
2022-11-11T08:34:11.314Z,15.30
2022-11-11T08:36:38.460Z,15.30
2022-11-11T08:39:05.283Z,15.30
2022-11-11T08:41:32.254Z,15.30
2022-11-11T08:44:00.767Z,15.40
2022-11-11T08:46:27.536Z,15.40
2022-11-11T08:48:54.396Z,15.40
2022-11-11T08:51:21.304Z,15.40
2022-11-11T08:53:48.009Z,15.40
2022-11-11T08:56:17.088Z,15.50
2022-11-11T08:58:44.093Z,15.50
2022-11-11T09:01:13.713Z,15.50
2022-11-11T09:03:44.164Z,15.40
2022-11-11T09:06:12.124Z,15.40
2022-11-11T09:08:41.299Z,15.40
2022-11-11T09:11:08.253Z,15.40
2022-11-11T09:13:39.086Z,15.40
2022-11-11T09:16:09.137Z,15.40
2022-11-11T09:18:36.079Z,15.40
2022-11-11T09:21:03.741Z,15.40
2022-11-11T09:23:30.573Z,15.40
2022-11-11T09:25:58.265Z,15.40
2022-11-11T09:28:25.167Z,15.40
2022-11-11T09:30:51.944Z,15.40
2022-11-11T09:33:19.850Z,15.40
2022-11-11T09:35:46.825Z,15.40
2022-11-11T09:38:13.588Z,15.40
2022-11-11T09:40:49.925Z,15.40
2022-11-11T09:43:40.876Z,15.50
2022-11-11T09:46:29.336Z,15.60
2022-11-11T09:48:58.744Z,15.60
2022-11-11T09:51:46.814Z,15.70
2022-11-11T09:54:22.884Z,15.80
2022-11-11T09:56:49.959Z,15.90
2022-11-11T09:59:27.657Z,16.00
2022-11-11T10:01:58.277Z,16.00
2022-11-11T10:04:32.242Z,16.10
2022-11-11T10:07:04.153Z,16.20
2022-11-11T10:09:45.601Z,16.30
2022-11-11T10:12:13.663Z,16.30
2022-11-11T10:14:50.366Z,16.40
2022-11-11T10:17:40.677Z,16.40
2022-11-11T10:20:28.390Z,16.40
2022-11-11T10:23:08.184Z,16.40
2022-11-11T10:25:34.875Z,16.40
2022-11-11T10:28:02.157Z,16.40
2022-11-11T10:30:31.847Z,16.40
2022-11-11T10:33:17.469Z,16.40
2022-11-11T10:35:44.710Z,16.40
2022-11-11T10:38:11.501Z,16.40
2022-11-11T10:40:45.173Z,16.40
2022-11-11T10:43:19.025Z,16.50
2022-11-11T10:46:00.756Z,16.50
2022-11-11T10:48:55.254Z,16.60
2022-11-11T10:51:22.147Z,16.60
2022-11-11T10:54:00.799Z,16.60
2022-11-11T10:56:43.235Z,16.60
2022-11-11T10:59:18.841Z,16.50
2022-11-11T11:01:50.233Z,16.50
2022-11-11T11:04:37.808Z,16.60
2022-11-11T11:07:05.819Z,16.80
2022-11-11T11:09:35.848Z,17.00
2022-11-11T11:12:08.138Z,17.20
2022-11-11T11:14:42.881Z,17.30
2022-11-11T11:17:22.833Z,17.40
2022-11-11T11:20:14.218Z,17.40
2022-11-11T11:22:52.130Z,17.50
2022-11-11T11:25:22.424Z,17.50
2022-11-11T11:27:52.875Z,17.50
2022-11-11T11:30:24.723Z,17.60
2022-11-11T11:33:02.258Z,17.60
2022-11-11T11:35:40.911Z,17.60
2022-11-11T11:38:08.868Z,17.60
2022-11-11T11:40:48.553Z,17.50
2022-11-11T11:43:34.769Z,17.40
2022-11-11T11:46:08.114Z,17.30
2022-11-11T11:49:00.422Z,17.30
2022-11-11T11:51:35.533Z,17.20
2022-11-11T11:54:24.277Z,17.20
2022-11-11T11:56:52.499Z,17.20
2022-11-11T11:59:42.309Z,17.20
2022-11-11T12:02:34.245Z,17.30
2022-11-11T12:05:50.190Z,17.20
2022-11-11T12:08:47.504Z,17.10
2022-11-11T12:11:41.453Z,17.00
2022-11-11T12:14:36.330Z,17.00
2022-11-11T12:17:23.460Z,16.90
2022-11-11T12:20:14.938Z,16.90
2022-11-11T12:22:51.942Z,16.90
2022-11-11T12:25:38.365Z,16.80
2022-11-11T12:28:08.231Z,16.80
2022-11-11T12:30:35.224Z,16.70
2022-11-11T12:33:27.553Z,16.60
2022-11-11T12:36:05.631Z,16.50
2022-11-11T12:38:57.817Z,16.40
2022-11-11T12:41:27.586Z,16.40
2022-11-11T12:44:05.873Z,16.40
2022-11-11T12:46:41.751Z,16.30
2022-11-11T12:49:24.141Z,16.40
2022-11-11T12:52:16.677Z,16.40
2022-11-11T12:55:02.136Z,16.40
2022-11-11T12:57:46.497Z,16.40
2022-11-11T13:00:20.655Z,16.50
2022-11-11T13:03:06.787Z,16.60
2022-11-11T13:05:58.239Z,16.70
2022-11-11T13:08:38.467Z,16.70
2022-11-11T13:11:14.115Z,17.00
2022-11-11T13:14:08.734Z,17.30
2022-11-11T13:16:35.631Z,17.60
2022-11-11T13:19:20.126Z,17.90
2022-11-11T13:21:51.193Z,18.10
2022-11-11T13:24:20.784Z,18.40
2022-11-11T13:26:57.360Z,18.50
2022-11-11T13:29:33.580Z,18.50
2022-11-11T13:32:00.917Z,18.10
2022-11-11T13:34:27.733Z,18.00
2022-11-11T13:36:55.491Z,18.00
2022-11-11T13:39:24.162Z,17.90
2022-11-11T13:41:53.690Z,17.80
2022-11-11T13:44:27.952Z,17.70
2022-11-11T13:47:00.748Z,17.50
2022-11-11T13:49:32.519Z,17.70
2022-11-11T13:52:06.163Z,17.80
2022-11-11T13:54:34.022Z,17.60
2022-11-11T13:57:18.923Z,17.40
2022-11-11T14:00:21.107Z,17.30
2022-11-11T14:02:48.350Z,17.10
2022-11-11T14:05:17.758Z,17.30
2022-11-11T14:07:44.788Z,17.80
2022-11-11T14:10:32.022Z,18.20
2022-11-11T14:13:18.819Z,18.30
2022-11-11T14:15:50.453Z,18.70
2022-11-11T14:18:20.565Z,18.60
2022-11-11T14:20:54.131Z,18.50
2022-11-11T14:23:24.064Z,18.30
2022-11-11T14:25:52.556Z,17.90
2022-11-11T14:28:24.709Z,17.80
2022-11-11T14:30:51.966Z,17.60
2022-11-11T14:33:25.057Z,17.40
2022-11-11T14:36:14.794Z,17.20
2022-11-11T14:39:19.145Z,17.10
2022-11-11T14:41:49.660Z,17.10
2022-11-11T14:44:34.807Z,17.00
2022-11-11T14:47:09.836Z,17.00
2022-11-11T14:49:45.744Z,16.90
2022-11-11T14:52:24.302Z,17.00
2022-11-11T14:55:03.182Z,17.00
2022-11-11T14:57:39.178Z,17.00
2022-11-11T15:00:17.687Z,16.90
2022-11-11T15:03:07.044Z,16.90
2022-11-11T15:06:02.048Z,16.80
2022-11-11T15:08:44.698Z,16.70
2022-11-11T15:11:21.301Z,16.50
2022-11-11T15:14:09.124Z,16.40
2022-11-11T15:17:15.106Z,16.30
2022-11-11T15:20:06.831Z,16.20
2022-11-11T15:22:57.817Z,16.10
2022-11-11T15:25:49.364Z,16.10
2022-11-11T15:28:49.976Z,16.00
2022-11-11T15:31:54.409Z,15.90
2022-11-11T15:34:24.184Z,15.80
2022-11-11T15:36:57.205Z,15.70
2022-11-11T15:39:25.124Z,15.60
2022-11-11T15:41:52.474Z,15.50
2022-11-11T15:44:24.266Z,15.40
2022-11-11T15:46:51.247Z,15.30
2022-11-11T15:49:36.861Z,15.20
2022-11-11T15:52:04.163Z,15.10
2022-11-11T15:54:33.540Z,14.90
2022-11-11T15:57:02.529Z,14.90
2022-11-11T15:59:36.102Z,14.90
2022-11-11T16:02:09.102Z,14.80
2022-11-11T16:04:55.033Z,14.80
2022-11-11T16:07:24.512Z,14.70
2022-11-11T16:09:52.207Z,14.60
2022-11-11T16:12:22.582Z,14.60
2022-11-11T16:14:49.604Z,14.60
2022-11-11T16:17:18.908Z,14.60
2022-11-11T16:19:49.356Z,14.50
2022-11-11T16:22:24.549Z,14.60
2022-11-11T16:24:51.280Z,14.60
2022-11-11T16:27:21.004Z,14.50
2022-11-11T16:29:48.386Z,14.50
2022-11-11T16:32:24.543Z,14.40
2022-11-11T16:34:52.902Z,14.30
2022-11-11T16:37:20.458Z,14.30
2022-11-11T16:39:47.420Z,14.30
2022-11-11T16:42:33.354Z,14.40
2022-11-11T16:45:05.480Z,14.40
2022-11-11T16:47:35.350Z,14.40
2022-11-11T16:50:17.726Z,14.40
2022-11-11T16:52:55.965Z,14.40
2022-11-11T16:55:26.619Z,14.30
2022-11-11T16:57:53.899Z,14.30
2022-11-11T17:00:24.094Z,14.30
2022-11-11T17:03:12.826Z,14.30
2022-11-11T17:06:08.415Z,14.30
2022-11-11T17:08:42.899Z,14.30
2022-11-11T17:11:38.606Z,14.30
2022-11-11T17:14:05.918Z,14.30
2022-11-11T17:16:33.101Z,14.30
2022-11-11T17:19:00.505Z,14.30
2022-11-11T17:21:27.440Z,14.30
2022-11-11T17:23:54.261Z,14.30
2022-11-11T17:26:21.497Z,14.30
2022-11-11T17:28:48.410Z,14.30
2022-11-11T17:31:16.416Z,14.30
2022-11-11T17:33:45.685Z,14.30
2022-11-11T17:36:12.619Z,14.20
2022-11-11T17:38:39.669Z,14.30
2022-11-11T17:41:06.856Z,14.30
2022-11-11T17:43:33.851Z,14.30
2022-11-11T17:46:01.518Z,14.20
2022-11-11T17:48:29.063Z,14.30
2022-11-11T17:50:56.799Z,14.40
2022-11-11T17:53:23.574Z,14.30
2022-11-11T17:55:51.267Z,14.40
2022-11-11T17:58:19.620Z,14.30
2022-11-11T18:00:47.521Z,14.30
2022-11-11T18:03:15.210Z,14.40
2022-11-11T18:05:42.021Z,14.30
2022-11-11T18:08:09.065Z,14.30
2022-11-11T18:10:35.989Z,14.30
2022-11-11T18:13:02.831Z,14.20
2022-11-11T18:15:29.761Z,14.30
2022-11-11T18:17:56.751Z,14.20
2022-11-11T18:20:23.659Z,14.20
2022-11-11T18:22:50.735Z,14.20
2022-11-11T18:25:17.832Z,14.20
2022-11-11T18:27:45.612Z,14.20
2022-11-11T18:30:13.501Z,14.20
2022-11-11T18:32:40.765Z,14.20
2022-11-11T18:35:08.283Z,14.10
2022-11-11T18:37:38.626Z,14.10
2022-11-11T18:40:08.843Z,14.00
2022-11-11T18:42:35.763Z,14.00
2022-11-11T18:45:02.686Z,14.00
2022-11-11T18:47:29.512Z,14.00
2022-11-11T18:49:56.514Z,14.00
2022-11-11T18:52:23.151Z,14.00
2022-11-11T18:54:49.909Z,14.00
2022-11-11T18:57:16.633Z,14.00
2022-11-11T18:59:45.430Z,14.00
2022-11-11T19:02:12.341Z,13.90
2022-11-11T19:04:39.012Z,13.90
2022-11-11T19:07:05.741Z,13.80
2022-11-11T19:09:32.961Z,13.80
2022-11-11T19:11:59.702Z,13.70
2022-11-11T19:14:27.936Z,13.70
2022-11-11T19:16:54.763Z,13.70
2022-11-11T19:19:21.685Z,13.60
2022-11-11T19:21:48.531Z,13.60
2022-11-11T19:24:17.696Z,13.60
2022-11-11T19:26:47.692Z,13.60
2022-11-11T19:29:14.811Z,13.50
2022-11-11T19:31:42.121Z,13.50
2022-11-11T19:34:10.441Z,13.50
2022-11-11T19:36:37.268Z,13.50
2022-11-11T19:39:04.991Z,13.50
2022-11-11T19:41:32.923Z,13.40
2022-11-11T19:43:59.697Z,13.40
2022-11-11T19:46:27.939Z,13.40
2022-11-11T19:48:55.804Z,13.30
2022-11-11T19:51:23.448Z,13.30
2022-11-11T19:53:55.012Z,13.30
2022-11-11T19:56:23.342Z,13.20
2022-11-11T19:58:50.083Z,13.20
2022-11-11T20:01:21.792Z,13.10
2022-11-11T20:03:48.725Z,13.00
2022-11-11T20:06:31.520Z,13.00
2022-11-11T20:08:59.939Z,12.90
2022-11-11T20:11:27.210Z,12.80
2022-11-11T20:13:54.494Z,12.70
2022-11-11T20:16:21.191Z,12.60
2022-11-11T20:18:48.223Z,12.50
2022-11-11T20:21:15.111Z,12.40
2022-11-11T20:23:42.047Z,12.30
2022-11-11T20:26:11.475Z,12.20
2022-11-11T20:28:39.159Z,12.10
2022-11-11T20:31:10.700Z,12.00
2022-11-11T20:33:39.201Z,11.90
2022-11-11T20:36:07.909Z,11.80
2022-11-11T20:38:34.714Z,11.70
2022-11-11T20:41:02.867Z,11.60
2022-11-11T20:43:30.254Z,11.60
2022-11-11T20:46:02.325Z,11.50
2022-11-11T20:48:29.278Z,11.40
2022-11-11T20:51:29.218Z,11.40
2022-11-11T20:53:56.992Z,11.30
2022-11-11T20:56:24.735Z,11.40
2022-11-11T20:58:54.869Z,11.40
2022-11-11T21:01:23.367Z,11.40
2022-11-11T21:03:56.243Z,11.40
2022-11-11T21:06:23.134Z,11.40
2022-11-11T21:08:49.990Z,11.40
2022-11-11T21:11:18.019Z,11.40
2022-11-11T21:13:45.808Z,11.30
2022-11-11T21:16:17.884Z,11.30
2022-11-11T21:18:45.551Z,11.20
2022-11-11T21:21:17.298Z,11.20
2022-11-11T21:23:44.096Z,11.10
2022-11-11T21:26:12.766Z,11.00
2022-11-11T21:28:40.480Z,11.00
2022-11-11T21:31:08.892Z,10.90
2022-11-11T21:33:36.182Z,10.90
2022-11-11T21:36:07.472Z,10.80
2022-11-11T21:38:35.624Z,10.70
2022-11-11T21:41:09.716Z,10.70
2022-11-11T21:43:37.291Z,10.70
2022-11-11T21:46:05.221Z,10.70
2022-11-11T21:48:32.418Z,10.70
2022-11-11T21:51:14.674Z,10.80
2022-11-11T21:53:42.445Z,10.90
2022-11-11T21:56:13.240Z,10.90
2022-11-11T21:58:43.917Z,11.00
2022-11-11T22:01:27.408Z,11.10
2022-11-11T22:04:07.240Z,11.10
2022-11-11T22:06:34.367Z,11.20
2022-11-11T22:09:02.094Z,11.20
2022-11-11T22:11:33.029Z,11.30
2022-11-11T22:14:01.202Z,11.30
2022-11-11T22:16:34.820Z,11.30
2022-11-11T22:19:06.743Z,11.30
2022-11-11T22:21:34.025Z,11.30
2022-11-11T22:24:02.318Z,11.30
2022-11-11T22:26:35.039Z,11.30
2022-11-11T22:29:02.530Z,11.30
2022-11-11T22:31:30.221Z,11.40
2022-11-11T22:34:01.827Z,11.40
2022-11-11T22:36:29.776Z,11.40
2022-11-11T22:38:56.769Z,11.50
2022-11-11T22:41:28.049Z,11.60
2022-11-11T22:44:02.262Z,11.60
2022-11-11T22:46:30.312Z,11.70
2022-11-11T22:49:00.962Z,11.70
2022-11-11T22:51:29.228Z,11.70
2022-11-11T22:54:03.230Z,11.70
2022-11-11T22:56:30.089Z,11.80
2022-11-11T22:58:57.315Z,11.80
2022-11-11T23:01:31.583Z,11.90
2022-11-11T23:04:00.162Z,11.90
2022-11-11T23:06:27.966Z,11.90
2022-11-11T23:08:54.668Z,12.00
2022-11-11T23:11:23.112Z,12.00
2022-11-11T23:13:50.198Z,12.00
2022-11-11T23:16:20.547Z,12.00
2022-11-11T23:18:47.350Z,12.00
2022-11-11T23:21:18.626Z,12.10
2022-11-11T23:23:45.622Z,12.10
2022-11-11T23:26:17.495Z,12.10
2022-11-11T23:28:44.436Z,12.10
2022-11-11T23:31:15.983Z,12.10
2022-11-11T23:33:48.382Z,12.10
2022-11-11T23:36:17.143Z,12.10
2022-11-11T23:38:43.811Z,12.10
2022-11-11T23:41:10.916Z,12.10
2022-11-11T23:43:37.854Z,12.00
2022-11-11T23:46:05.736Z,12.00
2022-11-11T23:48:32.662Z,12.00
2022-11-11T23:50:59.803Z,12.00
2022-11-11T23:53:26.619Z,12.00
2022-11-11T23:55:53.337Z,12.00
2022-11-11T23:58:20.048Z,12.00
